createdAt,value
2023-05-06T00:01:25.343Z,12.33
2023-05-06T00:03:53.586Z,13.00
2023-05-06T00:06:22.441Z,13.23
2023-05-06T00:08:50.385Z,13.73
2023-05-06T00:11:19.569Z,13.47
2023-05-06T00:13:47.661Z,14.20
2023-05-06T00:16:15.866Z,13.73
2023-05-06T00:18:43.757Z,13.27
2023-05-06T00:21:11.646Z,13.60
2023-05-06T00:23:39.471Z,14.13
2023-05-06T00:26:13.720Z,13.37
2023-05-06T00:28:43.029Z,13.30
2023-05-06T00:31:10.871Z,12.33
2023-05-06T00:33:38.674Z,13.13
2023-05-06T00:36:06.841Z,13.60
2023-05-06T00:38:38.219Z,12.83
2023-05-06T00:41:06.593Z,12.70
2023-05-06T00:43:34.410Z,13.27
2023-05-06T00:46:03.659Z,13.40
2023-05-06T00:48:31.556Z,13.33
2023-05-06T00:50:59.419Z,13.47
2023-05-06T00:53:27.262Z,13.20
2023-05-06T00:55:55.221Z,12.33
2023-05-06T00:58:23.033Z,13.30
2023-05-06T01:00:52.248Z,12.77
2023-05-06T01:03:23.922Z,13.20
2023-05-06T01:05:56.514Z,12.43
2023-05-06T01:08:30.173Z,12.70
2023-05-06T01:11:02.609Z,12.20
2023-05-06T01:13:36.489Z,13.40
2023-05-06T01:16:06.222Z,13.87
2023-05-06T01:18:36.091Z,12.93
2023-05-06T01:21:06.109Z,14.13
2023-05-06T01:23:53.391Z,13.90
2023-05-06T01:26:21.228Z,14.60
2023-05-06T01:28:49.265Z,14.97
2023-05-06T01:31:22.684Z,15.80
2023-05-06T01:33:59.917Z,14.70
2023-05-06T01:36:31.919Z,15.83
2023-05-06T01:39:09.861Z,18.67
2023-05-06T01:41:40.781Z,18.63
2023-05-06T01:44:09.365Z,19.27
2023-05-06T01:46:37.842Z,18.67
2023-05-06T01:49:08.095Z,18.90
2023-05-06T01:51:35.958Z,19.87
2023-05-06T01:54:05.746Z,18.63
2023-05-06T01:56:33.618Z,19.07
2023-05-06T01:59:01.493Z,18.13
2023-05-06T02:01:29.372Z,19.43
2023-05-06T02:03:57.328Z,20.00
2023-05-06T02:06:25.363Z,20.33
2023-05-06T02:08:53.298Z,20.77
2023-05-06T02:11:22.509Z,20.63
2023-05-06T02:13:50.353Z,19.60
2023-05-06T02:16:18.258Z,20.13
2023-05-06T02:18:46.118Z,21.80
2023-05-06T02:21:14.029Z,22.70
2023-05-06T02:23:41.919Z,21.37
2023-05-06T02:26:10.580Z,22.37
2023-05-06T02:28:39.901Z,22.43
2023-05-06T02:31:07.852Z,23.17
2023-05-06T02:33:35.949Z,22.73
2023-05-06T02:36:03.835Z,23.90
2023-05-06T02:38:31.684Z,24.27
2023-05-06T02:40:59.508Z,22.57
2023-05-06T02:43:27.320Z,22.83
2023-05-06T02:45:56.553Z,23.33
2023-05-06T02:48:24.392Z,22.93
2023-05-06T02:50:52.565Z,22.50
2023-05-06T02:53:20.704Z,21.67
2023-05-06T02:55:48.605Z,21.97
2023-05-06T02:58:16.459Z,22.73
2023-05-06T03:00:44.558Z,22.07
2023-05-06T03:03:13.774Z,21.80
2023-05-06T03:05:41.690Z,22.07
2023-05-06T03:08:09.516Z,22.87
2023-05-06T03:10:37.341Z,23.17
2023-05-06T03:13:05.288Z,21.73
2023-05-06T03:15:33.142Z,21.33
2023-05-06T03:18:01.259Z,22.13
2023-05-06T03:20:30.636Z,21.97
2023-05-06T03:22:58.699Z,21.67
2023-05-06T03:25:26.572Z,22.00
2023-05-06T03:27:54.457Z,21.53
2023-05-06T03:30:22.305Z,21.40
2023-05-06T03:32:50.163Z,20.77
2023-05-06T03:35:18.341Z,21.10
2023-05-06T03:37:47.583Z,21.17
2023-05-06T03:40:15.575Z,23.83
2023-05-06T03:42:43.457Z,22.07
2023-05-06T03:45:11.689Z,22.93
2023-05-06T03:47:42.118Z,22.90
2023-05-06T03:50:10.916Z,21.97
2023-05-06T03:52:39.152Z,22.07
2023-05-06T03:55:09.898Z,22.50
2023-05-06T03:57:38.013Z,22.13
2023-05-06T04:00:07.303Z,21.17
2023-05-06T04:02:36.316Z,21.30
2023-05-06T04:05:04.306Z,21.40
2023-05-06T04:07:32.205Z,20.90
2023-05-06T04:10:00.040Z,21.07
2023-05-06T04:12:29.376Z,21.73
2023-05-06T04:14:57.199Z,21.20
2023-05-06T04:17:25.058Z,20.50
2023-05-06T04:19:53.893Z,19.93
2023-05-06T04:22:21.772Z,20.57
2023-05-06T04:24:49.609Z,20.00
2023-05-06T04:27:17.727Z,19.30
2023-05-06T04:29:46.892Z,19.27
2023-05-06T04:32:17.364Z,20.00
2023-05-06T04:34:47.422Z,19.10
2023-05-06T04:37:15.426Z,20.07
2023-05-06T04:39:47.408Z,19.13
2023-05-06T04:42:16.165Z,19.40
2023-05-06T04:44:44.385Z,18.37
2023-05-06T04:47:13.974Z,21.00
2023-05-06T04:49:42.450Z,21.07
2023-05-06T04:52:10.286Z,21.57
2023-05-06T04:54:38.117Z,20.13
2023-05-06T04:57:06.281Z,20.37
2023-05-06T04:59:34.135Z,18.57
2023-05-06T05:02:02.010Z,19.27
2023-05-06T05:04:31.256Z,18.20
2023-05-06T05:06:59.118Z,18.07
2023-05-06T05:09:27.134Z,18.37
2023-05-06T05:11:54.962Z,19.53
2023-05-06T05:14:22.965Z,18.90
2023-05-06T05:16:50.855Z,19.20
2023-05-06T05:19:18.771Z,19.73
2023-05-06T05:21:48.052Z,18.07
2023-05-06T05:24:16.057Z,19.40
2023-05-06T05:26:43.870Z,19.43
2023-05-06T05:29:11.722Z,18.83
2023-05-06T05:31:39.629Z,18.07
2023-05-06T05:34:07.850Z,16.93
2023-05-06T05:36:35.698Z,17.63
2023-05-06T05:39:05.118Z,16.80
2023-05-06T05:41:33.020Z,16.30
2023-05-06T05:44:00.900Z,16.00
2023-05-06T05:46:28.867Z,15.50
2023-05-06T05:48:56.741Z,14.70
2023-05-06T05:51:24.653Z,14.93
2023-05-06T05:53:54.062Z,14.63
2023-05-06T05:56:23.322Z,15.93
2023-05-06T05:58:51.197Z,14.00
2023-05-06T06:01:19.126Z,14.13
2023-05-06T06:03:47.096Z,14.37
2023-05-06T06:06:15.132Z,15.00
2023-05-06T06:08:43.051Z,14.60
2023-05-06T06:11:10.887Z,13.53
2023-05-06T06:13:40.064Z,13.00
2023-05-06T06:16:08.389Z,12.80
2023-05-06T06:18:36.277Z,11.67
2023-05-06T06:21:04.365Z,12.47
2023-05-06T06:23:32.218Z,11.77
2023-05-06T06:26:00.209Z,11.13
2023-05-06T06:28:28.401Z,10.37
2023-05-06T06:30:57.614Z,10.90
2023-05-06T06:33:25.460Z,10.83
2023-05-06T06:35:53.327Z,10.13
2023-05-06T06:38:21.248Z,10.27
2023-05-06T06:40:49.393Z,9.80
2023-05-06T06:43:19.901Z,10.50
2023-05-06T06:45:48.393Z,9.73
2023-05-06T06:48:17.859Z,8.80
2023-05-06T06:50:45.909Z,8.80
2023-05-06T06:53:13.822Z,8.50
2023-05-06T06:55:44.287Z,8.30
2023-05-06T06:58:12.488Z,8.00
2023-05-06T07:00:40.482Z,8.37
2023-05-06T07:03:08.381Z,8.03
2023-05-06T07:05:37.697Z,8.60
2023-05-06T07:08:05.746Z,8.27
2023-05-06T07:10:33.589Z,8.43
2023-05-06T07:13:01.579Z,8.97
2023-05-06T07:15:31.019Z,7.87
2023-05-06T07:17:58.929Z,8.13
2023-05-06T07:20:27.137Z,8.40
2023-05-06T07:22:56.402Z,8.30
2023-05-06T07:25:24.285Z,8.00
2023-05-06T07:27:52.169Z,8.13
2023-05-06T07:30:22.410Z,8.20
2023-05-06T07:32:51.234Z,8.60
2023-05-06T07:35:19.345Z,7.87
2023-05-06T07:37:47.611Z,7.30
2023-05-06T07:40:17.059Z,7.93
2023-05-06T07:42:44.977Z,7.03
2023-05-06T07:45:13.245Z,7.27
2023-05-06T07:47:41.282Z,7.60
2023-05-06T07:50:10.717Z,7.43
2023-05-06T07:52:38.558Z,7.50
2023-05-06T07:55:09.196Z,6.80
2023-05-06T07:57:38.829Z,7.20
2023-05-06T08:00:09.964Z,7.87
2023-05-06T08:02:38.819Z,7.53
2023-05-06T08:05:08.923Z,7.20
2023-05-06T08:07:37.093Z,6.83
2023-05-06T08:10:05.588Z,7.47
2023-05-06T08:12:33.572Z,6.73
2023-05-06T08:15:02.879Z,7.00
2023-05-06T08:17:30.742Z,7.60
2023-05-06T08:19:58.770Z,8.23
2023-05-06T08:22:26.912Z,7.77
2023-05-06T08:24:55.149Z,7.50
2023-05-06T08:27:23.005Z,7.30
2023-05-06T08:29:51.426Z,7.17
2023-05-06T08:32:20.813Z,6.80
2023-05-06T08:34:48.682Z,7.10
2023-05-06T08:37:16.606Z,7.53
2023-05-06T08:39:45.587Z,8.10
2023-05-06T08:42:13.640Z,7.63
2023-05-06T08:44:41.508Z,7.50
2023-05-06T08:47:09.488Z,7.27
2023-05-06T08:49:38.799Z,7.20
2023-05-06T08:52:07.191Z,6.90
2023-05-06T08:54:36.503Z,6.83
2023-05-06T08:57:06.425Z,7.30
2023-05-06T08:59:34.652Z,7.43
2023-05-06T09:02:03.416Z,7.43
2023-05-06T09:04:31.652Z,7.23
2023-05-06T09:07:00.871Z,7.73
2023-05-06T09:09:28.817Z,7.33
2023-05-06T09:11:57.876Z,6.97
2023-05-06T09:14:25.760Z,7.23
2023-05-06T09:16:53.846Z,7.20
2023-05-06T09:19:22.968Z,7.07
2023-05-06T09:21:52.050Z,7.10
2023-05-06T09:24:21.896Z,7.20
2023-05-06T09:26:49.763Z,7.43
2023-05-06T09:29:17.595Z,6.80
2023-05-06T09:31:46.712Z,7.10
2023-05-06T09:34:14.922Z,6.40
2023-05-06T09:36:42.772Z,6.83
2023-05-06T09:39:10.875Z,7.13
2023-05-06T09:41:40.153Z,6.33
2023-05-06T09:44:08.021Z,6.77
2023-05-06T09:46:35.975Z,5.70
2023-05-06T09:49:03.926Z,6.20
2023-05-06T09:51:32.584Z,6.10
2023-05-06T09:54:00.945Z,6.43
2023-05-06T09:56:29.593Z,6.47
2023-05-06T09:59:01.319Z,5.77
2023-05-06T10:01:36.799Z,6.37
2023-05-06T10:04:07.588Z,6.33
2023-05-06T10:06:36.916Z,6.40
2023-05-06T10:09:06.267Z,6.67
2023-05-06T10:11:34.358Z,7.07
2023-05-06T10:14:03.882Z,6.20
2023-05-06T10:16:32.427Z,6.47
2023-05-06T10:19:01.317Z,5.93
2023-05-06T10:21:29.869Z,5.13
2023-05-06T10:24:04.497Z,5.03
2023-05-06T10:26:33.140Z,5.47
2023-05-06T10:29:03.913Z,5.20
2023-05-06T10:31:32.166Z,4.90
2023-05-06T10:34:02.970Z,4.77
2023-05-06T10:36:32.188Z,4.77
2023-05-06T10:39:03.377Z,5.10
2023-05-06T10:41:31.922Z,4.67
2023-05-06T10:44:00.374Z,4.23
2023-05-06T10:46:30.301Z,4.83
2023-05-06T10:49:16.998Z,4.83
2023-05-06T10:51:45.071Z,3.90
2023-05-06T10:54:23.464Z,4.27
2023-05-06T10:57:10.670Z,4.30
2023-05-06T10:59:38.540Z,3.70
2023-05-06T11:02:10.843Z,3.80
2023-05-06T11:04:38.803Z,3.30
2023-05-06T11:07:12.038Z,3.23
2023-05-06T11:09:56.787Z,3.57
2023-05-06T11:12:45.561Z,3.93
2023-05-06T11:15:27.330Z,3.70
2023-05-06T11:17:57.599Z,3.77
2023-05-06T11:20:26.662Z,4.17
2023-05-06T11:22:55.355Z,4.53
2023-05-06T11:25:40.588Z,5.43
2023-05-06T11:28:09.870Z,4.77
2023-05-06T11:30:39.202Z,4.73
2023-05-06T11:33:09.380Z,4.13
2023-05-06T11:35:37.629Z,4.33
2023-05-06T11:38:06.023Z,4.00
2023-05-06T11:40:34.249Z,4.80
2023-05-06T11:43:12.435Z,4.63
2023-05-06T11:45:45.237Z,4.53
2023-05-06T11:48:14.799Z,3.80
2023-05-06T11:50:46.380Z,3.90
2023-05-06T11:53:16.011Z,4.03
2023-05-06T11:55:43.883Z,3.77
2023-05-06T11:58:14.689Z,3.97
2023-05-06T12:00:49.692Z,4.10
2023-05-06T12:03:20.706Z,3.87
2023-05-06T12:05:49.238Z,3.70
2023-05-06T12:08:26.627Z,3.70
2023-05-06T12:10:56.687Z,3.30
2023-05-06T12:13:24.833Z,3.60
2023-05-06T12:15:55.215Z,4.10
2023-05-06T12:18:25.071Z,3.87
2023-05-06T12:20:54.976Z,3.90
2023-05-06T12:23:22.918Z,4.00
2023-05-06T12:26:02.503Z,3.67
2023-05-06T12:28:31.421Z,3.57
2023-05-06T12:30:59.374Z,3.83
2023-05-06T12:33:28.884Z,3.50
2023-05-06T12:36:07.728Z,3.93
2023-05-06T12:38:35.691Z,3.77
2023-05-06T12:41:04.425Z,3.40
2023-05-06T12:43:32.779Z,3.27
2023-05-06T12:46:04.815Z,3.60
2023-05-06T12:48:34.197Z,3.33
2023-05-06T12:51:02.540Z,3.30
2023-05-06T12:53:34.911Z,2.97
2023-05-06T12:56:02.735Z,3.07
2023-05-06T12:58:30.802Z,2.93
2023-05-06T13:00:58.899Z,3.03
2023-05-06T13:03:26.926Z,3.30
2023-05-06T13:05:56.289Z,2.60
2023-05-06T13:08:24.144Z,2.47
2023-05-06T13:10:52.040Z,2.90
2023-05-06T13:13:20.002Z,3.20
2023-05-06T13:15:47.962Z,3.10
2023-05-06T13:18:15.810Z,3.00
2023-05-06T13:20:43.659Z,3.30
2023-05-06T13:23:12.847Z,3.40
2023-05-06T13:25:56.007Z,3.30
2023-05-06T13:28:28.511Z,3.33
2023-05-06T13:30:56.426Z,3.90
2023-05-06T13:33:24.313Z,3.80
2023-05-06T13:35:52.106Z,3.87
2023-05-06T13:38:21.910Z,3.57
2023-05-06T13:40:52.228Z,3.70
2023-05-06T13:43:20.211Z,3.60
2023-05-06T13:45:48.084Z,3.53
2023-05-06T13:48:16.202Z,3.23
2023-05-06T13:50:44.298Z,3.47
2023-05-06T13:53:12.124Z,3.30
2023-05-06T13:55:41.710Z,3.27
2023-05-06T13:58:09.541Z,3.00
2023-05-06T14:00:37.437Z,3.07
2023-05-06T14:03:05.878Z,2.90
2023-05-06T14:05:33.835Z,3.37
2023-05-06T14:08:01.676Z,3.20
2023-05-06T14:10:29.493Z,3.20
2023-05-06T14:12:58.788Z,3.10
2023-05-06T14:15:26.794Z,3.20
2023-05-06T14:17:54.726Z,2.93
2023-05-06T14:20:22.732Z,3.27
2023-05-06T14:22:50.577Z,2.97
2023-05-06T14:25:18.389Z,3.13
2023-05-06T14:27:46.557Z,2.90
2023-05-06T14:30:16.344Z,3.00
2023-05-06T14:32:44.330Z,3.03
2023-05-06T14:35:12.397Z,2.83
2023-05-06T14:37:40.935Z,3.10
2023-05-06T14:40:11.025Z,3.00
2023-05-06T14:42:39.028Z,3.40
2023-05-06T14:45:08.310Z,3.00
2023-05-06T14:47:37.727Z,3.20
2023-05-06T14:50:06.274Z,2.83
2023-05-06T14:52:34.138Z,2.90
2023-05-06T14:55:02.065Z,2.67
2023-05-06T14:57:29.920Z,2.90
2023-05-06T14:59:58.248Z,3.10
2023-05-06T15:02:26.446Z,3.37
2023-05-06T15:04:55.720Z,3.00
2023-05-06T15:07:23.587Z,3.00
2023-05-06T15:09:51.423Z,2.93
2023-05-06T15:12:21.167Z,2.97
2023-05-06T15:14:49.007Z,3.00
2023-05-06T15:17:16.918Z,3.13
2023-05-06T15:19:44.766Z,2.83
2023-05-06T15:22:13.944Z,2.50
2023-05-06T15:24:41.763Z,2.83
2023-05-06T15:27:09.614Z,3.40
2023-05-06T15:29:38.830Z,2.80
2023-05-06T15:32:07.146Z,3.00
2023-05-06T15:34:34.988Z,2.60
2023-05-06T15:37:02.818Z,2.73
2023-05-06T15:39:36.814Z,2.67
2023-05-06T15:42:05.167Z,2.80
2023-05-06T15:44:33.520Z,2.47
2023-05-06T15:47:01.364Z,2.53
2023-05-06T15:52:01.274Z,2.40
2023-05-06T15:54:31.504Z,2.63
2023-05-06T15:57:00.561Z,2.40
2023-05-06T15:59:28.447Z,2.60
2023-05-06T16:04:27.069Z,2.53
2023-05-06T16:06:54.992Z,2.40
2023-05-06T16:09:22.939Z,2.70
2023-05-06T16:11:52.172Z,2.23
2023-05-06T16:14:19.969Z,2.33
2023-05-06T16:16:47.837Z,2.40
2023-05-06T16:19:15.767Z,2.60
2023-05-06T16:21:43.566Z,2.93
2023-05-06T16:24:11.447Z,2.80
2023-05-06T16:26:39.382Z,2.87
2023-05-06T16:29:08.555Z,2.80
2023-05-06T16:31:36.573Z,2.67
2023-05-06T16:34:04.441Z,2.50
2023-05-06T16:36:32.308Z,2.80
2023-05-06T16:39:00.168Z,2.67
2023-05-06T16:41:28.000Z,2.63
2023-05-06T16:43:56.150Z,2.70
2023-05-06T16:46:26.235Z,2.67
2023-05-06T16:48:54.277Z,2.60
2023-05-06T16:51:22.177Z,2.80
2023-05-06T16:53:50.007Z,2.93
2023-05-06T16:56:20.049Z,2.57
2023-05-06T16:58:49.058Z,2.80
2023-05-06T17:01:16.940Z,2.63
2023-05-06T17:03:46.278Z,2.77
2023-05-06T17:06:14.422Z,2.23
2023-05-06T17:08:42.269Z,2.53
2023-05-06T17:11:10.126Z,2.60
2023-05-06T17:13:37.969Z,2.40
2023-05-06T17:16:06.235Z,2.40
2023-05-06T17:18:34.060Z,2.40
2023-05-06T17:21:03.264Z,2.60
2023-05-06T17:23:31.113Z,2.27
2023-05-06T17:25:58.959Z,2.47
2023-05-06T17:28:26.894Z,2.43
2023-05-06T17:30:54.833Z,2.70
2023-05-06T17:33:22.956Z,2.50
2023-05-06T17:35:50.894Z,2.90
2023-05-06T17:38:20.515Z,2.40
2023-05-06T17:40:48.347Z,2.47
2023-05-06T17:43:16.363Z,3.07
2023-05-06T17:45:46.166Z,2.80
2023-05-06T17:48:14.232Z,2.63
2023-05-06T17:50:42.201Z,2.33
2023-05-06T17:53:10.065Z,2.33
2023-05-06T17:55:39.883Z,2.40
2023-05-06T17:58:07.745Z,2.33
2023-05-06T18:00:36.909Z,2.63
2023-05-06T18:03:04.933Z,2.70
2023-05-06T18:05:33.100Z,2.50
2023-05-06T18:08:00.913Z,2.67
2023-05-06T18:10:29.510Z,2.77
2023-05-06T18:12:58.809Z,2.80
2023-05-06T18:15:28.234Z,3.00
2023-05-06T18:17:56.093Z,3.00
2023-05-06T18:20:23.934Z,2.83
2023-05-06T18:22:51.749Z,3.00
2023-05-06T18:25:19.801Z,3.10
2023-05-06T18:27:48.123Z,3.00
2023-05-06T18:30:17.477Z,3.10
2023-05-06T18:32:45.386Z,3.17
2023-05-06T18:35:13.471Z,3.13
2023-05-06T18:37:41.467Z,2.90
2023-05-06T18:40:10.221Z,3.23
2023-05-06T18:42:38.044Z,3.13
2023-05-06T18:45:07.411Z,3.20
2023-05-06T18:47:38.054Z,3.20
2023-05-06T18:50:06.681Z,2.97
2023-05-06T18:52:36.107Z,2.97
2023-05-06T18:55:05.054Z,2.87
2023-05-06T18:57:32.888Z,2.70
2023-05-06T19:00:00.727Z,3.10
2023-05-06T19:02:28.646Z,2.50
2023-05-06T19:04:58.277Z,2.73
2023-05-06T19:07:26.299Z,3.00
2023-05-06T19:09:54.175Z,3.17
2023-05-06T19:12:22.821Z,2.80
2023-05-06T19:14:50.636Z,2.90
2023-05-06T19:17:18.441Z,2.73
2023-05-06T19:19:48.640Z,3.00
2023-05-06T19:22:18.204Z,2.73
2023-05-06T19:24:46.035Z,3.10
2023-05-06T19:27:13.990Z,3.10
2023-05-06T19:29:41.905Z,3.17
2023-05-06T19:32:10.085Z,3.00
2023-05-06T19:34:37.941Z,3.17
2023-05-06T19:37:05.766Z,3.40
2023-05-06T19:39:34.940Z,2.80
2023-05-06T19:42:02.754Z,3.10
2023-05-06T19:44:30.598Z,3.03
2023-05-06T19:46:58.498Z,3.37
2023-05-06T19:49:26.366Z,3.27
2023-05-06T19:51:54.180Z,3.30
2023-05-06T19:54:22.447Z,3.50
2023-05-06T19:56:51.680Z,3.83
2023-05-06T19:59:19.491Z,3.80
2023-05-06T20:01:47.316Z,4.30
2023-05-06T20:04:15.148Z,5.03
2023-05-06T20:06:43.005Z,4.77
2023-05-06T20:09:11.168Z,5.03
2023-05-06T20:11:40.501Z,4.37
2023-05-06T20:14:09.732Z,4.70
2023-05-06T20:16:39.061Z,4.47
2023-05-06T20:19:07.857Z,4.47
2023-05-06T20:21:35.704Z,4.40
2023-05-06T20:24:03.574Z,4.53
2023-05-06T20:26:31.399Z,4.10
2023-05-06T20:29:01.059Z,3.80
2023-05-06T20:31:30.369Z,3.90
2023-05-06T20:33:58.257Z,4.27
2023-05-06T20:36:26.870Z,3.80
2023-05-06T20:38:54.716Z,3.80
2023-05-06T20:41:22.534Z,3.60
2023-05-06T20:43:52.805Z,4.13
2023-05-06T20:46:20.837Z,4.20
2023-05-06T20:48:51.477Z,3.97
2023-05-06T20:51:19.550Z,4.47
2023-05-06T20:53:47.571Z,4.60
2023-05-06T20:56:20.579Z,4.47
2023-05-06T20:58:48.420Z,4.47
2023-05-06T21:01:16.779Z,4.77
2023-05-06T21:03:46.311Z,4.83
2023-05-06T21:06:16.100Z,4.50
2023-05-06T21:08:44.042Z,4.40
2023-05-06T21:11:12.122Z,4.70
2023-05-06T21:13:40.382Z,4.53
2023-05-06T21:16:08.325Z,5.13
2023-05-06T21:18:36.235Z,4.90
2023-05-06T21:21:04.252Z,4.77
2023-05-06T21:23:35.424Z,4.50
2023-05-06T21:26:03.466Z,4.80
2023-05-06T21:28:31.280Z,4.80
2023-05-06T21:30:59.139Z,4.73
2023-05-06T21:33:26.996Z,4.97
2023-05-06T21:35:54.799Z,4.77
2023-05-06T21:38:22.583Z,4.90
2023-05-06T21:40:51.850Z,5.40
2023-05-06T21:43:19.693Z,5.70
2023-05-06T21:45:47.489Z,6.33
2023-05-06T21:48:15.314Z,6.30
2023-05-06T21:50:43.175Z,6.80
2023-05-06T21:53:11.021Z,6.60
2023-05-06T21:55:38.884Z,6.70
2023-05-06T21:58:08.066Z,5.83
2023-05-06T22:00:36.155Z,5.77
2023-05-06T22:03:04.256Z,5.33
2023-05-06T22:05:32.262Z,4.80
2023-05-06T22:08:00.145Z,5.17
2023-05-06T22:10:27.944Z,4.90
2023-05-06T22:12:56.287Z,4.80
2023-05-06T22:15:25.537Z,4.93
2023-05-06T22:17:53.549Z,5.00
2023-05-06T22:20:22.663Z,4.63
2023-05-06T22:22:51.936Z,4.90
2023-05-06T22:25:19.755Z,4.93
2023-05-06T22:27:47.589Z,5.33
2023-05-06T22:30:16.376Z,5.20
2023-05-06T22:32:45.785Z,5.33
2023-05-06T22:35:13.710Z,6.90
2023-05-06T22:37:41.546Z,6.27
2023-05-06T22:40:10.792Z,6.50
2023-05-06T22:42:39.256Z,6.43
2023-05-06T22:45:08.897Z,5.50
2023-05-06T22:47:37.163Z,5.20
2023-05-06T22:50:08.133Z,5.30
2023-05-06T22:52:35.985Z,5.10
2023-05-06T22:55:03.889Z,5.07
2023-05-06T22:57:31.773Z,5.47
2023-05-06T22:59:59.599Z,5.43
2023-05-06T23:02:28.503Z,5.90
2023-05-06T23:04:56.385Z,5.80
2023-05-06T23:07:25.647Z,5.60
2023-05-06T23:09:53.474Z,5.30
2023-05-06T23:12:21.302Z,5.30
2023-05-06T23:14:49.114Z,5.60
2023-05-06T23:17:17.023Z,5.17
2023-05-06T23:19:45.956Z,5.57
2023-05-06T23:22:13.924Z,5.87
2023-05-06T23:24:43.200Z,5.30
2023-05-06T23:27:11.472Z,5.20
2023-05-06T23:29:39.277Z,5.33
2023-05-06T23:32:07.647Z,5.13
2023-05-06T23:34:35.510Z,5.20
2023-05-06T23:37:03.350Z,5.17
2023-05-06T23:39:31.165Z,5.20
2023-05-06T23:42:00.930Z,5.00
2023-05-06T23:44:28.834Z,5.83
2023-05-06T23:46:56.744Z,6.53
2023-05-06T23:49:24.804Z,6.23
2023-05-06T23:51:52.602Z,5.83
2023-05-06T23:54:20.914Z,5.87
2023-05-06T23:56:49.016Z,6.70
2023-05-06T23:59:18.232Z,6.30
